Time;durP1;ratioP1;P1;durP2;ratioP2;P2;SDS_P1;SDS_P2;PMS_P1;PMS_P2;Temp;Humidity;BMP_temperature;BMP_pressure;BME280_temperature;BME280_humidity;BME280_pressure;Samples;Min_cycle;Max_cycle;Signal;HPM_P1;HPM_P2
2024/01/15 00:01:22;;;;;;;20.33;10.82;;;;;;;;;;5076618;28;20136;-82
2024/01/15 00:03:49;;;;;;;19.58;11.43;;;;;;;;;;5076750;28;20407;-81
2024/01/15 00:06:17;;;;;;;20.33;10.88;;;;;;;;;;5076690;28;20049;-82
2024/01/15 00:08:44;;;;;;;22.90;10.60;;;;;;;;;;5076530;28;20461;-81
2024/01/15 00:11:11;;;;;;;20.65;11.02;;;;;;;;;;5076882;28;20080;-82
2024/01/15 00:13:38;;;;;;;23.98;10.90;;;;;;;;;;5078172;28;20052;-81
2024/01/15 00:16:06;;;;;;;24.08;11.90;;;;;;;;;;5077568;28;20468;-80
2024/01/15 00:18:33;;;;;;;23.02;12.18;;;;;;;;;;5077285;28;20059;-81
2024/01/15 00:21:00;;;;;;;25.17;13.00;;;;;;;;;;5078343;28;20458;-81
2024/01/15 00:23:28;;;;;;;25.65;12.32;;;;;;;;;;5079005;28;20051;-81
2024/01/15 00:25:55;;;;;;;24.17;12.75;;;;;;;;;;5079506;28;20044;-81
2024/01/15 00:28:23;;;;;;;23.75;13.05;;;;;;;;;;5060639;28;20498;-81
2024/01/15 00:30:50;;;;;;;22.55;11.77;;;;;;;;;;5077455;28;20106;-82
2024/01/15 00:33:19;;;;;;;23.35;12.10;;;;;;;;;;5077928;28;20462;-80
2024/01/15 00:35:47;;;;;;;23.30;12.10;;;;;;;;;;5077195;28;20139;-81
2024/01/15 00:38:14;;;;;;;25.60;13.20;;;;;;;;;;5078149;28;20107;-82
2024/01/15 00:40:41;;;;;;;26.73;13.25;;;;;;;;;;5078601;28;20044;-81
2024/01/15 00:43:08;;;;;;;30.27;14.05;;;;;;;;;;5076901;28;20545;-81
2024/01/15 00:45:36;;;;;;;30.55;14.30;;;;;;;;;;5077943;28;20045;-81
2024/01/15 00:48:03;;;;;;;32.80;15.05;;;;;;;;;;5079680;28;20041;-81
2024/01/15 00:50:31;;;;;;;29.85;15.20;;;;;;;;;;5076774;28;20429;-81
2024/01/15 00:52:58;;;;;;;30.55;14.35;;;;;;;;;;5076740;28;20048;-81
2024/01/15 00:55:25;;;;;;;30.10;14.00;;;;;;;;;;5077478;28;20044;-80
2024/01/15 00:57:52;;;;;;;30.30;13.55;;;;;;;;;;5079545;28;20049;-81
2024/01/15 01:00:20;;;;;;;26.05;14.20;;;;;;;;;;5080534;28;20079;-80
2024/01/15 01:02:49;;;;;;;34.53;15.23;;;;;;;;;;5076389;28;20049;-81
2024/01/15 01:05:17;;;;;;;25.30;13.05;;;;;;;;;;5075522;28;20094;-81
2024/01/15 01:07:44;;;;;;;31.20;13.85;;;;;;;;;;5075672;28;20047;-81
2024/01/15 01:10:11;;;;;;;26.48;13.07;;;;;;;;;;5075346;28;20067;-81
2024/01/15 01:12:39;;;;;;;26.25;13.13;;;;;;;;;;5076218;28;20056;-81
2024/01/15 01:15:06;;;;;;;26.95;13.73;;;;;;;;;;5075252;28;20575;-81
2024/01/15 01:17:35;;;;;;;23.77;10.90;;;;;;;;;;5077281;28;20055;-81
2024/01/15 01:20:04;;;;;;;27.20;12.48;;;;;;;;;;5075795;28;20102;-81
2024/01/15 01:22:31;;;;;;;25.17;12.85;;;;;;;;;;5075355;28;20044;-81
2024/01/15 01:24:59;;;;;;;21.38;11.45;;;;;;;;;;5076967;28;20048;-80
2024/01/15 01:27:26;;;;;;;25.05;12.40;;;;;;;;;;5078423;28;20079;-81
2024/01/15 01:29:53;;;;;;;25.77;12.38;;;;;;;;;;5075874;28;20052;-81
2024/01/15 01:32:21;;;;;;;29.13;13.60;;;;;;;;;;5076237;28;20064;-81
2024/01/15 01:34:48;;;;;;;27.67;13.32;;;;;;;;;;5076024;28;20045;-81
2024/01/15 01:37:15;;;;;;;25.63;12.23;;;;;;;;;;5076989;28;20052;-81
2024/01/15 01:39:43;;;;;;;24.45;11.68;;;;;;;;;;5076341;28;20174;-82
2024/01/15 01:42:11;;;;;;;28.35;13.50;;;;;;;;;;5068477;28;20044;-81
2024/01/15 01:44:39;;;;;;;27.83;13.60;;;;;;;;;;5077362;28;20074;-82
2024/01/15 01:47:06;;;;;;;26.60;13.18;;;;;;;;;;5075070;28;20555;-81
2024/01/15 01:49:35;;;;;;;26.85;13.18;;;;;;;;;;5070213;28;20057;-81
2024/01/15 01:52:05;;;;;;;30.05;13.05;;;;;;;;;;5075742;28;20045;-82
2024/01/15 01:54:32;;;;;;;25.20;12.13;;;;;;;;;;5076106;28;20093;-82
2024/01/15 01:57:00;;;;;;;24.35;12.25;;;;;;;;;;5076795;28;20105;-81
2024/01/15 01:59:28;;;;;;;27.30;12.85;;;;;;;;;;5078300;28;20049;-80
2024/01/15 02:01:55;;;;;;;28.73;13.32;;;;;;;;;;5079060;28;20501;-80
2024/01/15 02:04:24;;;;;;;28.95;13.43;;;;;;;;;;5078232;28;20521;-80
2024/01/15 02:06:54;;;;;;;27.98;12.98;;;;;;;;;;5077141;28;20044;-80
2024/01/15 02:09:21;;;;;;;25.83;13.25;;;;;;;;;;5077679;28;20106;-80
2024/01/15 02:11:49;;;;;;;28.50;14.40;;;;;;;;;;5077695;28;20045;-80
2024/01/15 02:14:16;;;;;;;33.67;14.90;;;;;;;;;;5078499;28;20571;-80
2024/01/15 02:16:45;;;;;;;32.58;14.88;;;;;;;;;;5077281;28;20067;-80
2024/01/15 02:19:16;;;;;;;30.05;14.65;;;;;;;;;;5069696;28;20102;-80
2024/01/15 02:21:44;;;;;;;32.08;14.82;;;;;;;;;;5077910;28;20067;-80
2024/01/15 02:24:12;;;;;;;29.45;14.85;;;;;;;;;;5078565;28;20053;-80
2024/01/15 02:26:40;;;;;;;31.35;14.70;;;;;;;;;;5077845;28;20049;-80
2024/01/15 02:29:15;;;;;;;33.70;15.10;;;;;;;;;;5055127;28;20048;-80
2024/01/15 02:31:42;;;;;;;33.55;14.30;;;;;;;;;;5077280;28;20049;-80
2024/01/15 02:34:10;;;;;;;29.05;13.88;;;;;;;;;;5070604;28;20052;-79
2024/01/15 02:36:38;;;;;;;32.88;14.35;;;;;;;;;;5078393;28;20049;-80
2024/01/15 02:39:05;;;;;;;29.55;13.90;;;;;;;;;;5077132;28;20071;-80
2024/01/15 02:41:33;;;;;;;28.88;13.48;;;;;;;;;;5078505;28;20132;-80
2024/01/15 02:44:00;;;;;;;30.08;13.80;;;;;;;;;;5077319;28;20044;-80
2024/01/15 02:46:27;;;;;;;29.17;13.45;;;;;;;;;;5078210;28;20070;-79
2024/01/15 02:48:54;;;;;;;28.73;14.70;;;;;;;;;;5078311;28;20081;-80
2024/01/15 02:51:22;;;;;;;31.98;15.70;;;;;;;;;;5077988;28;20062;-80
2024/01/15 02:53:50;;;;;;;36.17;15.55;;;;;;;;;;5078608;28;20547;-80
2024/01/15 02:56:18;;;;;;;35.92;15.68;;;;;;;;;;5077422;28;20083;-79
2024/01/15 02:58:45;;;;;;;33.00;14.57;;;;;;;;;;5077752;28;20049;-80
2024/01/15 03:01:13;;;;;;;37.22;16.23;;;;;;;;;;5061269;28;20044;-80
2024/01/15 03:03:41;;;;;;;31.77;15.45;;;;;;;;;;5060156;28;20044;-79
2024/01/15 03:06:08;;;;;;;34.40;14.35;;;;;;;;;;5076400;28;20041;-80
2024/01/15 03:08:35;;;;;;;32.67;14.38;;;;;;;;;;5077671;28;20048;-80
2024/01/15 03:11:02;;;;;;;34.47;15.15;;;;;;;;;;5076606;28;20109;-80
2024/01/15 03:13:30;;;;;;;29.90;13.90;;;;;;;;;;5077208;28;20056;-80
2024/01/15 03:15:57;;;;;;;24.88;12.65;;;;;;;;;;5076509;28;20056;-80
2024/01/15 03:18:24;;;;;;;29.13;14.10;;;;;;;;;;5078325;28;20088;-80
2024/01/15 03:20:52;;;;;;;24.55;12.48;;;;;;;;;;5078070;28;20059;-80
2024/01/15 03:23:19;;;;;;;25.35;13.20;;;;;;;;;;5077751;28;20048;-81
2024/01/15 03:25:46;;;;;;;24.45;12.43;;;;;;;;;;5077102;28;20106;-80
2024/01/15 03:28:13;;;;;;;26.75;11.52;;;;;;;;;;5079141;28;20044;-80
2024/01/15 03:30:41;;;;;;;23.00;10.77;;;;;;;;;;5078122;28;20071;-80
2024/01/15 03:33:08;;;;;;;23.33;11.13;;;;;;;;;;5080105;28;20056;-79
2024/01/15 03:35:35;;;;;;;20.20;9.95;;;;;;;;;;5082701;28;20051;-80
2024/01/15 03:38:03;;;;;;;19.25;10.02;;;;;;;;;;5081738;28;20125;-81
2024/01/15 03:40:30;;;;;;;18.88;9.70;;;;;;;;;;5082732;28;20044;-80
2024/01/15 03:42:57;;;;;;;16.95;8.77;;;;;;;;;;5081891;28;20387;-80
2024/01/15 03:45:24;;;;;;;16.67;9.30;;;;;;;;;;5082782;28;20471;-80
2024/01/15 03:47:52;;;;;;;18.25;9.40;;;;;;;;;;5082101;28;20071;-80
2024/01/15 03:50:19;;;;;;;14.88;7.65;;;;;;;;;;5083778;28;20555;-80
2024/01/15 03:52:46;;;;;;;14.93;8.77;;;;;;;;;;5081860;28;20044;-80
2024/01/15 03:55:14;;;;;;;14.30;8.20;;;;;;;;;;5082154;28;20487;-80
2024/01/15 03:57:41;;;;;;;13.65;7.88;;;;;;;;;;5081615;28;20113;-81
2024/01/15 04:00:08;;;;;;;13.02;7.97;;;;;;;;;;5082420;28;20056;-81
2024/01/15 04:02:37;;;;;;;14.23;7.88;;;;;;;;;;5082020;28;20044;-80
2024/01/15 04:05:04;;;;;;;13.75;7.65;;;;;;;;;;5081360;28;20044;-81
2024/01/15 04:07:32;;;;;;;17.65;9.23;;;;;;;;;;5081658;28;20067;-80
2024/01/15 04:09:59;;;;;;;13.38;8.15;;;;;;;;;;5083811;28;20127;-80
2024/01/15 04:12:26;;;;;;;16.02;8.90;;;;;;;;;;5082423;28;20462;-81
2024/01/15 04:14:54;;;;;;;16.33;8.73;;;;;;;;;;5083596;28;20517;-80
2024/01/15 04:17:21;;;;;;;17.65;9.07;;;;;;;;;;5083509;28;20098;-80
2024/01/15 04:19:49;;;;;;;15.38;8.68;;;;;;;;;;5082115;28;20079;-80
2024/01/15 04:22:17;;;;;;;16.08;9.05;;;;;;;;;;5081987;28;20053;-80
2024/01/15 04:24:44;;;;;;;14.63;8.80;;;;;;;;;;5083032;28;20044;-80
2024/01/15 04:27:11;;;;;;;16.45;8.93;;;;;;;;;;5074705;28;20094;-80
2024/01/15 04:29:39;;;;;;;16.10;8.60;;;;;;;;;;5083184;28;20144;-81
2024/01/15 04:32:08;;;;;;;16.98;8.40;;;;;;;;;;5081873;28;20075;-80
2024/01/15 04:34:35;;;;;;;15.85;9.73;;;;;;;;;;5081018;28;20104;-81
2024/01/15 04:37:02;;;;;;;17.30;8.63;;;;;;;;;;5082123;28;20131;-80
2024/01/15 04:39:30;;;;;;;15.35;8.38;;;;;;;;;;5080399;28;20113;-80
2024/01/15 04:41:57;;;;;;;15.80;8.85;;;;;;;;;;5080547;28;20067;-80
2024/01/15 04:44:24;;;;;;;14.73;8.18;;;;;;;;;;5080208;28;20075;-81
2024/01/15 04:46:51;;;;;;;13.70;7.95;;;;;;;;;;5081490;28;20048;-80
2024/01/15 04:49:19;;;;;;;12.68;7.32;;;;;;;;;;5081520;28;20505;-79
2024/01/15 04:51:47;;;;;;;20.38;8.05;;;;;;;;;;5082100;28;20120;-80
2024/01/15 04:54:18;;;;;;;15.23;7.53;;;;;;;;;;5083039;28;20048;-80
2024/01/15 04:56:45;;;;;;;16.30;8.63;;;;;;;;;;5080098;28;20051;-80
2024/01/15 04:59:12;;;;;;;12.95;7.55;;;;;;;;;;5081053;28;20110;-80
2024/01/15 05:01:39;;;;;;;15.50;8.40;;;;;;;;;;5079750;28;20063;-80
2024/01/15 05:04:07;;;;;;;12.30;7.20;;;;;;;;;;5080031;28;20074;-80
2024/01/15 05:06:34;;;;;;;12.20;7.65;;;;;;;;;;5080875;28;20048;-80
2024/01/15 05:09:03;;;;;;;14.63;7.40;;;;;;;;;;5080024;28;20131;-80
2024/01/15 05:11:30;;;;;;;17.10;8.52;;;;;;;;;;5079623;28;20053;-80
2024/01/15 05:13:57;;;;;;;15.38;7.82;;;;;;;;;;5078820;28;20074;-81
2024/01/15 05:16:25;;;;;;;13.77;7.50;;;;;;;;;;5080204;28;20074;-80
2024/01/15 05:18:52;;;;;;;10.88;7.13;;;;;;;;;;5079048;28;20048;-80
2024/01/15 05:21:19;;;;;;;11.57;7.13;;;;;;;;;;5079217;28;20070;-80
2024/01/15 05:23:47;;;;;;;9.98;6.45;;;;;;;;;;5079344;28;20041;-81
2024/01/15 05:26:14;;;;;;;12.80;6.90;;;;;;;;;;5078762;28;20044;-81
2024/01/15 05:28:42;;;;;;;10.80;7.10;;;;;;;;;;5075077;28;20045;-81
2024/01/15 05:31:10;;;;;;;11.63;6.78;;;;;;;;;;5078677;28;20048;-80
2024/01/15 05:33:38;;;;;;;10.35;6.53;;;;;;;;;;5079922;28;20044;-80
2024/01/15 05:36:06;;;;;;;10.45;6.93;;;;;;;;;;5079988;28;20064;-80
2024/01/15 05:38:33;;;;;;;10.88;6.45;;;;;;;;;;5079301;28;20072;-80
2024/01/15 05:41:00;;;;;;;8.50;5.47;;;;;;;;;;5079767;28;20052;-81
2024/01/15 05:43:27;;;;;;;11.88;6.45;;;;;;;;;;5078875;28;20056;-80
2024/01/15 05:45:55;;;;;;;11.48;6.63;;;;;;;;;;5078825;28;20052;-81
2024/01/15 05:48:22;;;;;;;10.73;6.43;;;;;;;;;;5077972;28;20052;-81
2024/01/15 05:50:50;;;;;;;10.15;6.60;;;;;;;;;;5078473;28;20128;-80
2024/01/15 05:53:17;;;;;;;11.88;6.25;;;;;;;;;;5078733;28;20530;-81
2024/01/15 05:55:44;;;;;;;10.02;6.18;;;;;;;;;;5077583;28;20052;-81
2024/01/15 05:58:11;;;;;;;9.52;6.05;;;;;;;;;;5078444;28;20052;-81
2024/01/15 06:00:39;;;;;;;7.78;5.28;;;;;;;;;;5079941;28;20537;-80
2024/01/15 06:03:06;;;;;;;13.27;6.85;;;;;;;;;;5079008;28;20482;-80
2024/01/15 06:05:33;;;;;;;10.63;6.55;;;;;;;;;;5078587;28;20048;-80
2024/01/15 06:08:00;;;;;;;13.95;6.30;;;;;;;;;;5078318;28;20066;-80
2024/01/15 06:10:28;;;;;;;12.82;6.72;;;;;;;;;;5079171;28;20052;-81
2024/01/15 06:12:55;;;;;;;9.00;5.78;;;;;;;;;;5079412;28;20048;-80
2024/01/15 06:15:22;;;;;;;9.98;6.07;;;;;;;;;;5076905;28;20121;-80
2024/01/15 06:17:49;;;;;;;9.60;5.82;;;;;;;;;;5077461;28;20110;-81
2024/01/15 06:20:17;;;;;;;11.45;5.80;;;;;;;;;;5079514;28;20053;-80
2024/01/15 06:22:44;;;;;;;10.63;6.07;;;;;;;;;;5077560;28;20051;-81
2024/01/15 06:25:12;;;;;;;9.90;5.40;;;;;;;;;;5077622;28;20044;-81
2024/01/15 06:27:39;;;;;;;7.72;4.95;;;;;;;;;;5078127;28;20044;-80
2024/01/15 06:30:07;;;;;;;8.60;5.20;;;;;;;;;;5078458;28;20048;-80
2024/01/15 06:32:34;;;;;;;10.82;6.00;;;;;;;;;;5079796;28;20134;-80
2024/01/15 06:35:01;;;;;;;9.45;5.50;;;;;;;;;;5078847;28;20580;-80
2024/01/15 06:37:29;;;;;;;11.40;5.30;;;;;;;;;;5078072;28;20060;-80
2024/01/15 06:39:56;;;;;;;8.27;5.47;;;;;;;;;;5078145;28;20053;-80
2024/01/15 06:42:24;;;;;;;10.40;5.70;;;;;;;;;;5078845;28;20512;-80
2024/01/15 06:44:51;;;;;;;10.35;6.13;;;;;;;;;;5079193;28;20052;-80
2024/01/15 06:47:18;;;;;;;9.80;5.70;;;;;;;;;;5077115;28;20102;-80
2024/01/15 06:49:46;;;;;;;9.68;5.70;;;;;;;;;;5078934;28;20062;-80
2024/01/15 06:52:13;;;;;;;9.50;5.70;;;;;;;;;;5078774;28;20052;-80
2024/01/15 06:54:40;;;;;;;7.80;5.22;;;;;;;;;;5078725;28;20059;-80
2024/01/15 06:57:08;;;;;;;11.07;5.47;;;;;;;;;;5077803;28;20082;-80
2024/01/15 06:59:35;;;;;;;10.93;5.80;;;;;;;;;;5078059;28;20044;-81
2024/01/15 07:02:02;;;;;;;9.18;5.40;;;;;;;;;;5076603;28;20128;-81
2024/01/15 07:04:29;;;;;;;8.23;5.85;;;;;;;;;;5077801;28;20078;-80
2024/01/15 07:06:57;;;;;;;10.20;5.70;;;;;;;;;;5077377;28;20062;-80
2024/01/15 07:09:24;;;;;;;8.77;5.55;;;;;;;;;;5077912;28;20050;-80
2024/01/15 07:11:51;;;;;;;10.05;5.93;;;;;;;;;;5076276;28;20049;-80
2024/01/15 07:14:18;;;;;;;8.75;5.18;;;;;;;;;;5076825;28;20121;-81
2024/01/15 07:16:47;;;;;;;8.70;5.60;;;;;;;;;;5077312;28;20063;-81
2024/01/15 07:19:15;;;;;;;10.15;6.30;;;;;;;;;;5077065;28;20103;-80
2024/01/15 07:21:43;;;;;;;9.70;6.47;;;;;;;;;;5078470;28;20051;-80
2024/01/15 07:24:10;;;;;;;10.10;5.72;;;;;;;;;;5077460;28;20045;-81
2024/01/15 07:26:38;;;;;;;11.55;6.70;;;;;;;;;;5076869;28;20088;-80
2024/01/15 07:29:05;;;;;;;13.15;6.72;;;;;;;;;;5077166;28;20057;-81
2024/01/15 07:31:32;;;;;;;14.18;6.53;;;;;;;;;;5077756;28;20044;-80
2024/01/15 07:34:00;;;;;;;12.48;6.43;;;;;;;;;;5078180;28;20128;-80
2024/01/15 07:36:27;;;;;;;11.75;6.15;;;;;;;;;;5078302;28;20323;-80
2024/01/15 07:38:55;;;;;;;9.60;5.68;;;;;;;;;;5079027;28;20059;-81
2024/01/15 07:41:23;;;;;;;10.15;6.28;;;;;;;;;;5077498;28;20049;-81
2024/01/15 07:43:50;;;;;;;12.88;7.00;;;;;;;;;;5078050;28;20450;-81
2024/01/15 07:46:17;;;;;;;10.13;6.30;;;;;;;;;;5077368;28;20044;-80
2024/01/15 07:48:45;;;;;;;8.63;5.38;;;;;;;;;;5078995;28;20118;-81
2024/01/15 07:51:12;;;;;;;9.98;5.88;;;;;;;;;;5077850;28;20122;-80
2024/01/15 07:53:40;;;;;;;14.20;6.10;;;;;;;;;;5074374;28;20136;-81
2024/01/15 07:56:07;;;;;;;10.05;5.70;;;;;;;;;;5077424;28;20045;-80
2024/01/15 07:58:34;;;;;;;10.65;6.20;;;;;;;;;;5077013;28;20044;-80
2024/01/15 08:01:02;;;;;;;15.77;6.85;;;;;;;;;;5077429;28;20090;-81
2024/01/15 08:03:29;;;;;;;11.70;6.38;;;;;;;;;;5077379;28;20044;-80
2024/01/15 08:05:59;;;;;;;10.25;5.65;;;;;;;;;;5077646;28;20063;-81
2024/01/15 08:08:26;;;;;;;10.23;5.85;;;;;;;;;;5077424;28;20045;-81
2024/01/15 08:10:53;;;;;;;11.88;6.22;;;;;;;;;;5076985;28;20048;-81
2024/01/15 08:13:21;;;;;;;11.63;6.25;;;;;;;;;;5077086;28;20048;-80
2024/01/15 08:15:50;;;;;;;12.07;6.07;;;;;;;;;;5077936;28;20114;-81
2024/01/15 08:18:17;;;;;;;10.75;6.03;;;;;;;;;;5078899;28;20040;-81
2024/01/15 08:20:45;;;;;;;10.05;5.70;;;;;;;;;;5081367;28;20391;-81
2024/01/15 08:23:12;;;;;;;13.57;6.32;;;;;;;;;;5081608;28;20055;-82
2024/01/15 08:25:39;;;;;;;10.55;5.93;;;;;;;;;;5080896;28;20055;-82
2024/01/15 08:28:08;;;;;;;9.45;5.57;;;;;;;;;;5080990;28;20051;-82
2024/01/15 08:30:35;;;;;;;10.60;5.90;;;;;;;;;;5080732;28;20041;-81
2024/01/15 08:33:02;;;;;;;10.00;5.10;;;;;;;;;;5080909;28;20055;-82
2024/01/15 08:35:40;;;;;;;9.73;5.78;;;;;;;;;;5080658;28;20078;-81
2024/01/15 08:38:07;;;;;;;10.52;5.63;;;;;;;;;;5080905;28;20056;-81
2024/01/15 08:40:34;;;;;;;8.68;5.65;;;;;;;;;;5080497;28;20627;-81
2024/01/15 08:43:02;;;;;;;12.07;6.68;;;;;;;;;;5080588;28;20461;-81
2024/01/15 08:45:29;;;;;;;10.88;6.20;;;;;;;;;;5074014;28;20083;-82
2024/01/15 08:47:58;;;;;;;9.40;5.60;;;;;;;;;;5080898;28;20136;-81
2024/01/15 08:50:26;;;;;;;10.55;5.78;;;;;;;;;;5082870;28;20072;-81
2024/01/15 08:52:54;;;;;;;9.48;5.75;;;;;;;;;;5083322;28;20048;-81
2024/01/15 08:55:22;;;;;;;12.82;6.80;;;;;;;;;;5082092;28;20052;-82
2024/01/15 08:57:50;;;;;;;9.70;5.97;;;;;;;;;;5080934;28;20048;-82
2024/01/15 09:00:17;;;;;;;10.55;6.00;;;;;;;;;;5080517;28;20052;-81
2024/01/15 09:02:45;;;;;;;11.27;6.57;;;;;;;;;;5079418;28;20045;-81
2024/01/15 09:05:12;;;;;;;11.10;6.20;;;;;;;;;;5079717;28;20044;-81
2024/01/15 09:07:41;;;;;;;12.98;6.10;;;;;;;;;;5080007;28;20076;-82
2024/01/15 09:10:09;;;;;;;13.10;7.05;;;;;;;;;;5072797;28;20070;-81
2024/01/15 09:12:37;;;;;;;12.50;6.07;;;;;;;;;;5080923;28;20059;-81
2024/01/15 09:15:04;;;;;;;12.00;6.05;;;;;;;;;;5079778;28;20084;-81
2024/01/15 09:17:32;;;;;;;9.75;6.15;;;;;;;;;;5078694;28;20489;-81
2024/01/15 09:20:00;;;;;;;12.13;6.32;;;;;;;;;;5078733;28;20419;-82
2024/01/15 09:22:28;;;;;;;15.27;6.97;;;;;;;;;;5078773;28;20494;-81
2024/01/15 09:24:55;;;;;;;14.40;6.82;;;;;;;;;;5080252;28;20044;-81
2024/01/15 09:27:25;;;;;;;11.88;6.28;;;;;;;;;;5080405;28;20048;-82
2024/01/15 09:29:53;;;;;;;10.82;6.15;;;;;;;;;;5078409;28;20063;-81
2024/01/15 09:32:22;;;;;;;13.20;7.03;;;;;;;;;;5079253;28;20122;-81
2024/01/15 09:34:50;;;;;;;11.00;6.25;;;;;;;;;;5079716;28;20049;-82
2024/01/15 09:37:18;;;;;;;11.77;6.13;;;;;;;;;;5067693;28;20049;-81
2024/01/15 09:40:07;;;;;;;11.48;6.20;;;;;;;;;;5077793;28;20552;-81
2024/01/15 09:42:35;;;;;;;13.82;6.95;;;;;;;;;;5079138;28;20048;-81
2024/01/15 09:45:03;;;;;;;11.50;6.10;;;;;;;;;;5077145;28;20485;-82
2024/01/15 09:47:31;;;;;;;10.45;6.00;;;;;;;;;;5078223;28;20123;-81
2024/01/15 09:49:58;;;;;;;9.70;5.63;;;;;;;;;;5079641;28;20048;-81
2024/01/15 09:52:25;;;;;;;15.57;6.38;;;;;;;;;;5080132;28;20048;-81
2024/01/15 09:54:53;;;;;;;10.88;5.57;;;;;;;;;;5080730;28;20127;-81
2024/01/15 09:57:20;;;;;;;8.05;5.55;;;;;;;;;;5080008;28;20498;-81
2024/01/15 09:59:48;;;;;;;11.38;5.88;;;;;;;;;;5079053;28;20588;-81
2024/01/15 10:02:18;;;;;;;9.60;5.40;;;;;;;;;;5080549;28;20497;-81
2024/01/15 10:04:45;;;;;;;8.57;5.25;;;;;;;;;;5079858;28;20052;-81
2024/01/15 10:07:19;;;;;;;10.40;5.65;;;;;;;;;;5080133;28;20048;-81
2024/01/15 10:09:47;;;;;;;13.07;5.70;;;;;;;;;;5080492;28;20044;-81
2024/01/15 10:12:15;;;;;;;9.30;5.60;;;;;;;;;;5079878;28;20106;-81
2024/01/15 10:14:45;;;;;;;9.88;5.65;;;;;;;;;;5079406;28;20486;-82
2024/01/15 10:17:15;;;;;;;8.55;5.07;;;;;;;;;;5073136;28;20094;-81
2024/01/15 10:19:42;;;;;;;7.15;5.13;;;;;;;;;;5078981;28;20048;-81
2024/01/15 10:22:15;;;;;;;7.38;5.00;;;;;;;;;;5071263;28;20045;-82
2024/01/15 10:24:43;;;;;;;11.40;5.47;;;;;;;;;;5078954;28;20060;-82
2024/01/15 10:27:11;;;;;;;12.55;6.25;;;;;;;;;;5065918;28;20044;-82
2024/01/15 10:29:38;;;;;;;12.13;6.50;;;;;;;;;;5074522;28;20055;-82
2024/01/15 10:32:08;;;;;;;11.93;6.80;;;;;;;;;;5075828;28;20064;-81
2024/01/15 10:34:45;;;;;;;14.35;7.07;;;;;;;;;;5073919;28;20180;-81
2024/01/15 10:37:13;;;;;;;12.98;6.68;;;;;;;;;;5073914;28;20051;-82
2024/01/15 10:39:40;;;;;;;15.35;5.93;;;;;;;;;;5067115;28;20056;-81
2024/01/15 10:42:08;;;;;;;10.98;6.40;;;;;;;;;;5078637;28;20048;-80
2024/01/15 10:44:35;;;;;;;9.95;5.90;;;;;;;;;;5078952;28;20044;-81
2024/01/15 10:47:03;;;;;;;13.88;5.65;;;;;;;;;;5079169;28;20045;-81
2024/01/15 10:49:30;;;;;;;12.27;6.63;;;;;;;;;;5078151;28;20053;-81
2024/01/15 10:52:01;;;;;;;16.17;6.50;;;;;;;;;;5077894;28;20586;-81
2024/01/15 10:54:29;;;;;;;10.50;5.75;;;;;;;;;;5077778;28;20056;-81
2024/01/15 10:56:57;;;;;;;8.40;5.97;;;;;;;;;;5077699;28;20048;-81
2024/01/15 10:59:25;;;;;;;12.38;5.50;;;;;;;;;;5077882;28;20418;-81
2024/01/15 11:01:56;;;;;;;9.20;4.88;;;;;;;;;;5077398;28;20048;-81
2024/01/15 11:04:26;;;;;;;9.00;5.28;;;;;;;;;;5078028;28;20045;-82
2024/01/15 11:06:56;;;;;;;11.55;5.15;;;;;;;;;;5077797;28;20048;-81
2024/01/15 11:09:24;;;;;;;8.95;4.90;;;;;;;;;;5077783;28;20041;-81
2024/01/15 11:11:53;;;;;;;8.50;4.95;;;;;;;;;;5078124;28;20045;-81
2024/01/15 11:14:36;;;;;;;8.05;4.45;;;;;;;;;;5079481;28;20051;-81
2024/01/15 11:17:03;;;;;;;9.70;4.70;;;;;;;;;;5077351;28;20056;-81
2024/01/15 11:19:39;;;;;;;7.97;4.63;;;;;;;;;;5077389;28;20056;-81
2024/01/15 11:22:27;;;;;;;6.05;3.70;;;;;;;;;;5077714;28;20476;-81
2024/01/15 11:24:55;;;;;;;7.32;4.28;;;;;;;;;;5077824;28;20102;-82
2024/01/15 11:27:42;;;;;;;14.38;5.05;;;;;;;;;;5079373;28;20056;-82
2024/01/15 11:30:10;;;;;;;8.02;4.47;;;;;;;;;;5077091;28;20049;-81
2024/01/15 11:32:42;;;;;;;9.45;4.32;;;;;;;;;;5078141;28;20083;-81
2024/01/15 11:35:10;;;;;;;10.93;4.43;;;;;;;;;;5076573;28;20052;-81
2024/01/15 11:37:54;;;;;;;5.93;4.00;;;;;;;;;;5078230;28;20473;-81
2024/01/15 11:40:22;;;;;;;8.05;4.40;;;;;;;;;;5071571;28;20524;-81
2024/01/15 11:42:52;;;;;;;6.15;4.40;;;;;;;;;;5076000;28;20056;-81
2024/01/15 11:45:20;;;;;;;8.50;4.85;;;;;;;;;;5078863;28;20053;-81
2024/01/15 11:48:06;;;;;;;9.02;5.10;;;;;;;;;;5077060;28;20051;-81
2024/01/15 11:50:34;;;;;;;5.90;4.30;;;;;;;;;;5076418;28;20045;-80
2024/01/15 11:53:07;;;;;;;24.73;5.22;;;;;;;;;;5079553;28;20555;-80
2024/01/15 11:55:36;;;;;;;7.38;4.82;;;;;;;;;;5080871;28;20044;-81
2024/01/15 11:58:08;;;;;;;7.35;4.30;;;;;;;;;;5081352;28;20044;-81
2024/01/15 12:00:39;;;;;;;5.35;4.35;;;;;;;;;;5080772;28;20049;-81
2024/01/15 12:03:08;;;;;;;8.88;5.20;;;;;;;;;;5080926;28;20044;-81
2024/01/15 12:05:37;;;;;;;9.43;4.38;;;;;;;;;;5080915;28;20041;-81
2024/01/15 12:08:11;;;;;;;9.10;4.75;;;;;;;;;;5080700;28;20559;-82
2024/01/15 12:10:40;;;;;;;7.15;4.63;;;;;;;;;;5080613;28;20052;-81
2024/01/15 12:13:15;;;;;;;7.47;4.75;;;;;;;;;;5080937;28;20165;-80
2024/01/15 12:15:43;;;;;;;7.40;5.22;;;;;;;;;;5080060;28;20068;-81
2024/01/15 12:18:12;;;;;;;10.93;4.40;;;;;;;;;;5072053;28;20493;-81
2024/01/15 12:20:40;;;;;;;8.18;5.15;;;;;;;;;;5074857;28;20057;-83
2024/01/15 12:23:07;;;;;;;9.10;4.38;;;;;;;;;;5076509;28;20090;-82
2024/01/15 12:25:37;;;;;;;7.60;4.47;;;;;;;;;;5078928;28;20044;-81
2024/01/15 12:28:05;;;;;;;9.23;5.40;;;;;;;;;;5077622;28;20521;-82
2024/01/15 12:30:33;;;;;;;12.27;5.35;;;;;;;;;;5079434;28;20107;-82
2024/01/15 12:33:03;;;;;;;9.18;5.03;;;;;;;;;;5078498;28;20132;-81
2024/01/15 12:35:31;;;;;;;8.48;4.75;;;;;;;;;;5078372;28;20493;-82
2024/01/15 12:38:00;;;;;;;9.65;4.97;;;;;;;;;;5077998;28;20052;-82
2024/01/15 12:40:27;;;;;;;9.43;4.90;;;;;;;;;;5078367;28;20074;-83
2024/01/15 12:42:55;;;;;;;7.45;4.93;;;;;;;;;;5076979;28;20044;-83
2024/01/15 12:45:24;;;;;;;8.13;5.25;;;;;;;;;;5078162;28;20048;-82
2024/01/15 12:47:51;;;;;;;9.15;4.97;;;;;;;;;;5075121;28;20049;-82
2024/01/15 12:50:19;;;;;;;7.28;5.07;;;;;;;;;;5077440;28;20119;-82
2024/01/15 12:52:48;;;;;;;10.13;5.47;;;;;;;;;;5077919;28;20053;-82
2024/01/15 12:55:15;;;;;;;9.98;5.38;;;;;;;;;;5077986;28;20060;-82
2024/01/15 12:57:44;;;;;;;9.25;5.07;;;;;;;;;;5077643;28;20456;-82
2024/01/15 13:00:12;;;;;;;7.93;4.88;;;;;;;;;;5068273;28;20080;-82
2024/01/15 13:02:42;;;;;;;8.05;5.45;;;;;;;;;;5078426;28;20105;-82
2024/01/15 13:05:11;;;;;;;12.07;5.90;;;;;;;;;;5077033;28;20044;-83
2024/01/15 13:07:42;;;;;;;8.65;5.15;;;;;;;;;;5078868;28;20070;-82
2024/01/15 13:10:10;;;;;;;7.55;4.78;;;;;;;;;;5076942;28;20049;-83
2024/01/15 13:12:38;;;;;;;8.25;4.20;;;;;;;;;;5076278;28;20517;-82
2024/01/15 13:15:11;;;;;;;6.00;3.88;;;;;;;;;;5077165;28;20060;-82
2024/01/15 13:17:40;;;;;;;4.38;3.47;;;;;;;;;;5059525;28;20055;-82
2024/01/15 13:20:08;;;;;;;8.15;4.28;;;;;;;;;;5077015;28;20063;-82
2024/01/15 13:22:36;;;;;;;4.35;3.83;;;;;;;;;;5076492;28;20040;-82
2024/01/15 13:25:04;;;;;;;5.80;3.92;;;;;;;;;;5075884;28;20045;-82
2024/01/15 13:27:31;;;;;;;6.18;4.03;;;;;;;;;;5076987;28;20067;-82
2024/01/15 13:30:00;;;;;;;5.82;3.78;;;;;;;;;;5076147;28;20045;-82
2024/01/15 13:32:28;;;;;;;5.40;3.97;;;;;;;;;;5074761;28;20044;-83
2024/01/15 13:34:57;;;;;;;5.22;3.78;;;;;;;;;;5074786;28;20054;-82
2024/01/15 13:37:24;;;;;;;7.45;4.20;;;;;;;;;;5063220;28;20103;-82
2024/01/15 13:39:52;;;;;;;5.15;4.00;;;;;;;;;;5072589;28;20048;-82
2024/01/15 13:42:23;;;;;;;6.47;4.35;;;;;;;;;;5077286;28;20090;-82
2024/01/15 13:44:51;;;;;;;6.15;3.80;;;;;;;;;;5076500;28;20052;-82
2024/01/15 13:47:18;;;;;;;5.53;3.78;;;;;;;;;;5075044;28;20075;-83
2024/01/15 13:49:45;;;;;;;6.45;4.18;;;;;;;;;;5074769;28;20052;-82
2024/01/15 13:52:13;;;;;;;6.07;4.10;;;;;;;;;;5076055;28;20489;-82
2024/01/15 13:54:41;;;;;;;13.55;4.97;;;;;;;;;;5075338;28;20087;-82
2024/01/15 13:57:17;;;;;;;10.30;4.15;;;;;;;;;;5067762;28;20098;-82
2024/01/15 13:59:45;;;;;;;7.38;4.22;;;;;;;;;;5074633;28;20131;-81
2024/01/15 14:02:12;;;;;;;6.25;4.15;;;;;;;;;;5074958;28;20563;-82
2024/01/15 14:04:43;;;;;;;7.10;4.38;;;;;;;;;;5074811;28;20087;-82
2024/01/15 14:07:11;;;;;;;6.68;4.47;;;;;;;;;;5067103;28;20422;-82
2024/01/15 14:09:38;;;;;;;7.55;4.30;;;;;;;;;;5074487;28;20048;-82
2024/01/15 14:12:06;;;;;;;8.20;4.50;;;;;;;;;;5074570;28;20044;-82
2024/01/15 14:14:33;;;;;;;7.40;4.43;;;;;;;;;;5076750;28;20420;-82
2024/01/15 14:17:01;;;;;;;8.88;4.57;;;;;;;;;;5073704;28;20063;-82
2024/01/15 14:19:28;;;;;;;7.75;3.97;;;;;;;;;;5074314;28;20060;-82
2024/01/15 14:21:55;;;;;;;5.00;3.90;;;;;;;;;;5074142;28;20136;-82
2024/01/15 14:24:23;;;;;;;8.63;5.05;;;;;;;;;;5073999;28;20105;-82
2024/01/15 14:26:50;;;;;;;7.45;4.55;;;;;;;;;;5074303;28;20044;-83
2024/01/15 14:29:20;;;;;;;8.18;4.43;;;;;;;;;;5074904;28;20166;-82
2024/01/15 14:31:47;;;;;;;10.73;4.28;;;;;;;;;;5074496;28;20139;-83
2024/01/15 14:34:18;;;;;;;7.05;4.30;;;;;;;;;;5075532;28;20550;-82
2024/01/15 14:36:46;;;;;;;6.13;4.30;;;;;;;;;;5074221;28;20486;-82